sensor_id;sensor_type;location;lat;lon;timestamp;temperature;humidity
24802;DHT22;12898;50.520;12.152;2023-08-01T00:00:46;16.70;99.90
24802;DHT22;12898;50.520;12.152;2023-08-01T00:03:12;16.70;99.90
24802;DHT22;12898;50.520;12.152;2023-08-01T00:05:39;16.70;99.90
24802;DHT22;12898;50.520;12.152;2023-08-01T00:08:10;16.70;99.90
24802;DHT22;12898;50.520;12.152;2023-08-01T00:10:38;16.70;99.90
24802;DHT22;12898;50.520;12.152;2023-08-01T00:13:04;16.70;99.90
24802;DHT22;12898;50.520;12.152;2023-08-01T00:15:30;16.60;99.90
24802;DHT22;12898;50.520;12.152;2023-08-01T00:17:56;16.60;99.90
24802;DHT22;12898;50.520;12.152;2023-08-01T00:20:21;16.60;99.90
24802;DHT22;12898;50.520;12.152;2023-08-01T00:22:47;16.60;99.90
24802;DHT22;12898;50.520;12.152;2023-08-01T00:25:13;16.60;99.90
24802;DHT22;12898;50.520;12.152;2023-08-01T00:27:39;16.60;99.90
24802;DHT22;12898;50.520;12.152;2023-08-01T00:30:05;16.60;99.90
24802;DHT22;12898;50.520;12.152;2023-08-01T00:32:31;16.60;99.90
24802;DHT22;12898;50.520;12.152;2023-08-01T00:34:57;16.50;99.90
24802;DHT22;12898;50.520;12.152;2023-08-01T00:37:23;16.50;99.90
24802;DHT22;12898;50.520;12.152;2023-08-01T00:39:49;16.50;99.90
24802;DHT22;12898;50.520;12.152;2023-08-01T00:42:15;16.50;99.90
24802;DHT22;12898;50.520;12.152;2023-08-01T00:44:41;16.50;99.90
24802;DHT22;12898;50.520;12.152;2023-08-01T00:47:07;16.40;99.90
24802;DHT22;12898;50.520;12.152;2023-08-01T00:49:33;16.40;99.90
24802;DHT22;12898;50.520;12.152;2023-08-01T00:51:59;16.40;99.90
24802;DHT22;12898;50.520;12.152;2023-08-01T00:54:25;16.30;99.90
24802;DHT22;12898;50.520;12.152;2023-08-01T00:56:51;16.30;99.90
24802;DHT22;12898;50.520;12.152;2023-08-01T00:59:16;16.30;99.90
24802;DHT22;12898;50.520;12.152;2023-08-01T01:01:42;16.30;99.90
24802;DHT22;12898;50.520;12.152;2023-08-01T01:04:08;16.20;99.90
24802;DHT22;12898;50.520;12.152;2023-08-01T01:07:03;16.20;99.90
24802;DHT22;12898;50.520;12.152;2023-08-01T01:09:30;16.10;99.90
24802;DHT22;12898;50.520;12.152;2023-08-01T01:11:59;16.10;99.90
24802;DHT22;12898;50.520;12.152;2023-08-01T01:14:28;16.10;99.90
24802;DHT22;12898;50.520;12.152;2023-08-01T01:16:55;16.00;99.90
24802;DHT22;12898;50.520;12.152;2023-08-01T01:19:20;15.90;99.90
24802;DHT22;12898;50.520;12.152;2023-08-01T01:21:47;15.90;99.90
24802;DHT22;12898;50.520;12.152;2023-08-01T01:24:13;15.90;99.90
24802;DHT22;12898;50.520;12.152;2023-08-01T01:26:40;15.80;99.90
24802;DHT22;12898;50.520;12.152;2023-08-01T01:29:07;15.80;99.90
24802;DHT22;12898;50.520;12.152;2023-08-01T01:31:36;15.80;99.90
24802;DHT22;12898;50.520;12.152;2023-08-01T01:34:03;15.80;99.90
24802;DHT22;12898;50.520;12.152;2023-08-01T01:36:29;15.80;99.90
24802;DHT22;12898;50.520;12.152;2023-08-01T01:38:55;15.70;99.90
24802;DHT22;12898;50.520;12.152;2023-08-01T01:41:20;15.80;99.90
24802;DHT22;12898;50.520;12.152;2023-08-01T01:43:46;15.70;99.90
24802;DHT22;12898;50.520;12.152;2023-08-01T01:46:12;15.70;99.90
24802;DHT22;12898;50.520;12.152;2023-08-01T01:48:37;15.70;99.90
24802;DHT22;12898;50.520;12.152;2023-08-01T01:51:03;15.70;99.90
24802;DHT22;12898;50.520;12.152;2023-08-01T01:53:29;15.70;99.90
24802;DHT22;12898;50.520;12.152;2023-08-01T01:55:54;15.70;99.90
24802;DHT22;12898;50.520;12.152;2023-08-01T01:58:20;15.70;99.90
24802;DHT22;12898;50.520;12.152;2023-08-01T02:00:46;15.70;99.90
24802;DHT22;12898;50.520;12.152;2023-08-01T02:03:11;15.70;99.90
24802;DHT22;12898;50.520;12.152;2023-08-01T02:05:39;15.70;99.90
24802;DHT22;12898;50.520;12.152;2023-08-01T02:08:06;15.70;99.90
24802;DHT22;12898;50.520;12.152;2023-08-01T02:10:31;15.70;99.90
24802;DHT22;12898;50.520;12.152;2023-08-01T02:12:57;15.70;99.90
24802;DHT22;12898;50.520;12.152;2023-08-01T02:15:23;15.70;99.90
24802;DHT22;12898;50.520;12.152;2023-08-01T02:17:49;15.70;99.90
24802;DHT22;12898;50.520;12.152;2023-08-01T02:20:15;15.70;99.90
24802;DHT22;12898;50.520;12.152;2023-08-01T02:22:40;15.70;99.90
24802;DHT22;12898;50.520;12.152;2023-08-01T02:25:06;15.70;99.90
24802;DHT22;12898;50.520;12.152;2023-08-01T02:27:32;15.80;99.90
24802;DHT22;12898;50.520;12.152;2023-08-01T02:29:58;15.80;99.90
24802;DHT22;12898;50.520;12.152;2023-08-01T02:32:23;15.70;99.90
24802;DHT22;12898;50.520;12.152;2023-08-01T02:34:49;15.70;99.90
24802;DHT22;12898;50.520;12.152;2023-08-01T02:37:15;15.80;99.90
24802;DHT22;12898;50.520;12.152;2023-08-01T02:39:40;15.80;99.90
24802;DHT22;12898;50.520;12.152;2023-08-01T02:42:06;15.80;99.90
24802;DHT22;12898;50.520;12.152;2023-08-01T02:44:32;15.80;99.90
24802;DHT22;12898;50.520;12.152;2023-08-01T02:46:57;15.70;99.90
24802;DHT22;12898;50.520;12.152;2023-08-01T02:49:23;15.70;99.90
24802;DHT22;12898;50.520;12.152;2023-08-01T02:51:49;15.70;99.90
24802;DHT22;12898;50.520;12.152;2023-08-01T02:54:14;15.70;99.90
24802;DHT22;12898;50.520;12.152;2023-08-01T02:56:40;15.70;99.90
24802;DHT22;12898;50.520;12.152;2023-08-01T02:59:10;15.70;99.90
24802;DHT22;12898;50.520;12.152;2023-08-01T03:01:36;15.70;99.90
24802;DHT22;12898;50.520;12.152;2023-08-01T03:04:04;15.70;99.90
24802;DHT22;12898;50.520;12.152;2023-08-01T03:06:31;15.70;99.90
24802;DHT22;12898;50.520;12.152;2023-08-01T03:08:57;15.70;99.90
24802;DHT22;12898;50.520;12.152;2023-08-01T03:11:23;15.70;99.90
24802;DHT22;12898;50.520;12.152;2023-08-01T03:13:49;15.70;99.90
24802;DHT22;12898;50.520;12.152;2023-08-01T03:16:16;15.70;99.90
24802;DHT22;12898;50.520;12.152;2023-08-01T03:18:42;15.70;99.90
24802;DHT22;12898;50.520;12.152;2023-08-01T03:21:08;15.70;99.90
24802;DHT22;12898;50.520;12.152;2023-08-01T03:23:34;15.60;99.90
24802;DHT22;12898;50.520;12.152;2023-08-01T03:25:59;15.70;99.90
24802;DHT22;12898;50.520;12.152;2023-08-01T03:28:26;15.70;99.90
24802;DHT22;12898;50.520;12.152;2023-08-01T03:30:54;15.70;99.90
24802;DHT22;12898;50.520;12.152;2023-08-01T03:33:20;15.70;99.90
24802;DHT22;12898;50.520;12.152;2023-08-01T03:35:46;15.70;99.90
24802;DHT22;12898;50.520;12.152;2023-08-01T03:38:12;15.70;99.90
24802;DHT22;12898;50.520;12.152;2023-08-01T03:40:38;15.70;99.90
24802;DHT22;12898;50.520;12.152;2023-08-01T03:43:04;15.70;99.90
24802;DHT22;12898;50.520;12.152;2023-08-01T03:45:30;15.70;99.90
24802;DHT22;12898;50.520;12.152;2023-08-01T03:47:56;15.70;99.90
24802;DHT22;12898;50.520;12.152;2023-08-01T03:50:21;15.70;99.90
24802;DHT22;12898;50.520;12.152;2023-08-01T03:52:47;15.70;99.90
24802;DHT22;12898;50.520;12.152;2023-08-01T03:55:13;15.70;99.90
24802;DHT22;12898;50.520;12.152;2023-08-01T03:57:38;15.70;99.90
24802;DHT22;12898;50.520;12.152;2023-08-01T04:00:06;15.70;99.90
24802;DHT22;12898;50.520;12.152;2023-08-01T04:02:39;15.70;99.90
24802;DHT22;12898;50.520;12.152;2023-08-01T04:05:08;15.70;99.90
24802;DHT22;12898;50.520;12.152;2023-08-01T04:07:38;15.70;99.90
24802;DHT22;12898;50.520;12.152;2023-08-01T04:10:04;15.70;99.90
24802;DHT22;12898;50.520;12.152;2023-08-01T04:12:34;15.70;99.90
24802;DHT22;12898;50.520;12.152;2023-08-01T04:15:00;15.70;99.90
24802;DHT22;12898;50.520;12.152;2023-08-01T04:17:26;15.80;99.90
24802;DHT22;12898;50.520;12.152;2023-08-01T04:19:52;15.70;99.90
24802;DHT22;12898;50.520;12.152;2023-08-01T04:22:18;15.80;99.90
24802;DHT22;12898;50.520;12.152;2023-08-01T04:24:44;15.80;99.90
24802;DHT22;12898;50.520;12.152;2023-08-01T04:27:09;15.80;99.90
24802;DHT22;12898;50.520;12.152;2023-08-01T04:29:35;15.80;99.90
24802;DHT22;12898;50.520;12.152;2023-08-01T04:32:01;15.80;99.90
24802;DHT22;12898;50.520;12.152;2023-08-01T04:34:26;15.80;99.90
24802;DHT22;12898;50.520;12.152;2023-08-01T04:36:52;15.80;99.90
24802;DHT22;12898;50.520;12.152;2023-08-01T04:39:18;15.80;99.90
24802;DHT22;12898;50.520;12.152;2023-08-01T04:41:43;15.80;99.90
24802;DHT22;12898;50.520;12.152;2023-08-01T04:44:09;15.80;99.90
24802;DHT22;12898;50.520;12.152;2023-08-01T04:46:35;15.80;99.90
24802;DHT22;12898;50.520;12.152;2023-08-01T04:49:00;15.80;99.90
24802;DHT22;12898;50.520;12.152;2023-08-01T04:51:26;15.80;99.90
24802;DHT22;12898;50.520;12.152;2023-08-01T04:53:52;15.90;99.90
24802;DHT22;12898;50.520;12.152;2023-08-01T04:56:17;15.90;99.90
24802;DHT22;12898;50.520;12.152;2023-08-01T04:58:43;15.90;99.90
24802;DHT22;12898;50.520;12.152;2023-08-01T05:01:09;15.90;99.90
24802;DHT22;12898;50.520;12.152;2023-08-01T05:03:34;15.90;99.90
24802;DHT22;12898;50.520;12.152;2023-08-01T05:06:00;15.90;99.90
24802;DHT22;12898;50.520;12.152;2023-08-01T05:08:26;15.90;99.90
24802;DHT22;12898;50.520;12.152;2023-08-01T05:10:52;16.00;99.90
24802;DHT22;12898;50.520;12.152;2023-08-01T05:13:18;16.00;99.90
24802;DHT22;12898;50.520;12.152;2023-08-01T05:15:44;16.00;99.90
24802;DHT22;12898;50.520;12.152;2023-08-01T05:18:13;16.00;99.90
24802;DHT22;12898;50.520;12.152;2023-08-01T05:20:39;16.00;99.90
24802;DHT22;12898;50.520;12.152;2023-08-01T05:23:05;16.00;99.90
24802;DHT22;12898;50.520;12.152;2023-08-01T05:25:30;16.00;99.90
24802;DHT22;12898;50.520;12.152;2023-08-01T05:27:56;16.00;99.90
24802;DHT22;12898;50.520;12.152;2023-08-01T05:30:22;16.00;99.90
24802;DHT22;12898;50.520;12.152;2023-08-01T05:32:49;16.10;99.90
24802;DHT22;12898;50.520;12.152;2023-08-01T05:35:14;16.10;99.90
24802;DHT22;12898;50.520;12.152;2023-08-01T05:37:40;16.10;99.90
24802;DHT22;12898;50.520;12.152;2023-08-01T05:40:07;16.00;99.90
24802;DHT22;12898;50.520;12.152;2023-08-01T05:42:33;16.00;99.90
24802;DHT22;12898;50.520;12.152;2023-08-01T05:44:59;16.10;99.90
24802;DHT22;12898;50.520;12.152;2023-08-01T05:47:24;16.10;99.90
24802;DHT22;12898;50.520;12.152;2023-08-01T05:49:50;16.20;99.90
24802;DHT22;12898;50.520;12.152;2023-08-01T05:52:16;16.10;99.90
24802;DHT22;12898;50.520;12.152;2023-08-01T05:54:41;16.10;99.90
24802;DHT22;12898;50.520;12.152;2023-08-01T05:57:07;16.10;99.90
24802;DHT22;12898;50.520;12.152;2023-08-01T05:59:33;16.10;99.90
24802;DHT22;12898;50.520;12.152;2023-08-01T06:01:59;16.10;99.90
24802;DHT22;12898;50.520;12.152;2023-08-01T06:04:25;16.10;99.90
24802;DHT22;12898;50.520;12.152;2023-08-01T06:06:51;16.10;99.90
24802;DHT22;12898;50.520;12.152;2023-08-01T06:09:16;16.10;99.90
24802;DHT22;12898;50.520;12.152;2023-08-01T06:11:42;16.10;99.90
24802;DHT22;12898;50.520;12.152;2023-08-01T06:14:09;16.10;99.90
24802;DHT22;12898;50.520;12.152;2023-08-01T06:16:35;16.10;99.90
24802;DHT22;12898;50.520;12.152;2023-08-01T06:19:01;16.10;99.90
24802;DHT22;12898;50.520;12.152;2023-08-01T06:21:27;16.20;99.90
24802;DHT22;12898;50.520;12.152;2023-08-01T06:23:52;16.20;99.90
24802;DHT22;12898;50.520;12.152;2023-08-01T06:26:18;16.20;99.90
24802;DHT22;12898;50.520;12.152;2023-08-01T06:28:43;16.30;99.90
24802;DHT22;12898;50.520;12.152;2023-08-01T06:31:09;16.30;99.90
24802;DHT22;12898;50.520;12.152;2023-08-01T06:33:35;16.30;99.90
24802;DHT22;12898;50.520;12.152;2023-08-01T06:36:01;16.30;99.90
24802;DHT22;12898;50.520;12.152;2023-08-01T06:38:26;16.30;99.90
24802;DHT22;12898;50.520;12.152;2023-08-01T06:40:52;16.30;99.90
24802;DHT22;12898;50.520;12.152;2023-08-01T06:43:17;16.30;99.90
24802;DHT22;12898;50.520;12.152;2023-08-01T06:45:43;16.30;99.90
24802;DHT22;12898;50.520;12.152;2023-08-01T06:48:09;16.30;99.90
24802;DHT22;12898;50.520;12.152;2023-08-01T06:50:35;16.20;99.90
24802;DHT22;12898;50.520;12.152;2023-08-01T06:53:01;16.20;99.90
24802;DHT22;12898;50.520;12.152;2023-08-01T06:55:27;16.20;99.90
24802;DHT22;12898;50.520;12.152;2023-08-01T06:57:52;16.20;99.90
24802;DHT22;12898;50.520;12.152;2023-08-01T07:00:18;16.20;99.90
24802;DHT22;12898;50.520;12.152;2023-08-01T07:02:44;16.30;99.90
24802;DHT22;12898;50.520;12.152;2023-08-01T07:05:09;16.30;99.90
24802;DHT22;12898;50.520;12.152;2023-08-01T07:07:35;16.30;99.90
24802;DHT22;12898;50.520;12.152;2023-08-01T07:10:01;16.30;99.90
24802;DHT22;12898;50.520;12.152;2023-08-01T07:12:27;16.30;99.90
24802;DHT22;12898;50.520;12.152;2023-08-01T07:14:52;16.40;99.90
24802;DHT22;12898;50.520;12.152;2023-08-01T07:17:18;16.40;99.90
24802;DHT22;12898;50.520;12.152;2023-08-01T07:19:44;16.40;99.90
24802;DHT22;12898;50.520;12.152;2023-08-01T07:22:09;16.50;99.90
24802;DHT22;12898;50.520;12.152;2023-08-01T07:24:35;16.60;99.90
24802;DHT22;12898;50.520;12.152;2023-08-01T07:27:01;16.60;99.90
24802;DHT22;12898;50.520;12.152;2023-08-01T07:29:26;16.50;99.90
24802;DHT22;12898;50.520;12.152;2023-08-01T07:31:52;16.50;99.90
24802;DHT22;12898;50.520;12.152;2023-08-01T07:34:18;16.50;99.90
24802;DHT22;12898;50.520;12.152;2023-08-01T07:36:45;16.50;99.90
24802;DHT22;12898;50.520;12.152;2023-08-01T07:39:13;16.60;99.90
24802;DHT22;12898;50.520;12.152;2023-08-01T07:41:39;16.60;99.90
24802;DHT22;12898;50.520;12.152;2023-08-01T07:44:05;16.70;99.90
24802;DHT22;12898;50.520;12.152;2023-08-01T07:46:31;16.80;99.90
24802;DHT22;12898;50.520;12.152;2023-08-01T07:48:58;16.90;99.90
24802;DHT22;12898;50.520;12.152;2023-08-01T07:51:25;16.90;99.90
24802;DHT22;12898;50.520;12.152;2023-08-01T07:53:52;16.90;99.90
24802;DHT22;12898;50.520;12.152;2023-08-01T07:56:19;16.80;99.90
24802;DHT22;12898;50.520;12.152;2023-08-01T07:58:45;16.70;99.90
24802;DHT22;12898;50.520;12.152;2023-08-01T08:01:11;16.70;99.90
24802;DHT22;12898;50.520;12.152;2023-08-01T08:03:37;16.70;99.90
24802;DHT22;12898;50.520;12.152;2023-08-01T08:06:03;16.70;99.90
24802;DHT22;12898;50.520;12.152;2023-08-01T08:08:29;16.60;99.90
24802;DHT22;12898;50.520;12.152;2023-08-01T08:10:55;16.60;99.90
24802;DHT22;12898;50.520;12.152;2023-08-01T08:13:21;16.70;99.90
24802;DHT22;12898;50.520;12.152;2023-08-01T08:15:47;16.70;99.90
24802;DHT22;12898;50.520;12.152;2023-08-01T08:18:13;16.70;99.90
24802;DHT22;12898;50.520;12.152;2023-08-01T08:20:43;16.70;99.90
24802;DHT22;12898;50.520;12.152;2023-08-01T08:23:10;16.70;99.90
24802;DHT22;12898;50.520;12.152;2023-08-01T08:25:36;16.70;99.90
24802;DHT22;12898;50.520;12.152;2023-08-01T08:28:02;16.80;99.90
24802;DHT22;12898;50.520;12.152;2023-08-01T08:30:28;16.80;99.90
24802;DHT22;12898;50.520;12.152;2023-08-01T08:32:54;16.80;99.90
24802;DHT22;12898;50.520;12.152;2023-08-01T08:35:19;16.80;99.90
24802;DHT22;12898;50.520;12.152;2023-08-01T08:37:45;16.80;99.90
24802;DHT22;12898;50.520;12.152;2023-08-01T08:40:12;16.80;99.90
24802;DHT22;12898;50.520;12.152;2023-08-01T08:42:39;16.90;99.90
24802;DHT22;12898;50.520;12.152;2023-08-01T08:45:06;16.90;99.90
24802;DHT22;12898;50.520;12.152;2023-08-01T08:47:36;16.90;99.90
24802;DHT22;12898;50.520;12.152;2023-08-01T08:50:02;16.90;99.90
24802;DHT22;12898;50.520;12.152;2023-08-01T08:52:29;16.80;99.90
24802;DHT22;12898;50.520;12.152;2023-08-01T08:54:56;16.80;99.90
24802;DHT22;12898;50.520;12.152;2023-08-01T08:57:22;16.80;99.90
24802;DHT22;12898;50.520;12.152;2023-08-01T08:59:48;16.80;99.90
24802;DHT22;12898;50.520;12.152;2023-08-01T09:02:15;16.80;99.90
24802;DHT22;12898;50.520;12.152;2023-08-01T09:04:42;16.80;99.90
24802;DHT22;12898;50.520;12.152;2023-08-01T09:07:10;16.90;99.90
24802;DHT22;12898;50.520;12.152;2023-08-01T09:09:38;16.90;99.90
24802;DHT22;12898;50.520;12.152;2023-08-01T09:12:05;16.80;99.90
24802;DHT22;12898;50.520;12.152;2023-08-01T09:14:31;16.80;99.90
24802;DHT22;12898;50.520;12.152;2023-08-01T09:17:08;16.80;99.90
24802;DHT22;12898;50.520;12.152;2023-08-01T09:19:34;17.00;99.90
24802;DHT22;12898;50.520;12.152;2023-08-01T09:22:00;17.10;99.90
24802;DHT22;12898;50.520;12.152;2023-08-01T09:24:26;17.20;99.90
24802;DHT22;12898;50.520;12.152;2023-08-01T09:26:52;17.40;99.90
24802;DHT22;12898;50.520;12.152;2023-08-01T09:29:19;17.60;99.90
24802;DHT22;12898;50.520;12.152;2023-08-01T09:31:45;17.80;99.90
24802;DHT22;12898;50.520;12.152;2023-08-01T09:34:22;17.80;99.90
24802;DHT22;12898;50.520;12.152;2023-08-01T09:36:49;17.90;99.90
24802;DHT22;12898;50.520;12.152;2023-08-01T09:39:17;18.10;99.90
24802;DHT22;12898;50.520;12.152;2023-08-01T09:41:45;18.20;99.90
24802;DHT22;12898;50.520;12.152;2023-08-01T09:44:16;18.30;99.90
24802;DHT22;12898;50.520;12.152;2023-08-01T09:46:42;18.50;99.90
24802;DHT22;12898;50.520;12.152;2023-08-01T09:49:12;18.70;99.90
24802;DHT22;12898;50.520;12.152;2023-08-01T09:51:48;18.80;99.90
24802;DHT22;12898;50.520;12.152;2023-08-01T09:54:16;18.90;99.90
24802;DHT22;12898;50.520;12.152;2023-08-01T09:56:47;18.80;99.90
24802;DHT22;12898;50.520;12.152;2023-08-01T09:59:23;18.60;99.90
24802;DHT22;12898;50.520;12.152;2023-08-01T10:01:52;18.40;99.90
24802;DHT22;12898;50.520;12.152;2023-08-01T10:04:23;18.50;99.90
24802;DHT22;12898;50.520;12.152;2023-08-01T10:06:57;18.60;99.90
24802;DHT22;12898;50.520;12.152;2023-08-01T10:09:24;18.70;99.90
24802;DHT22;12898;50.520;12.152;2023-08-01T10:11:51;18.80;99.90
24802;DHT22;12898;50.520;12.152;2023-08-01T10:14:19;18.90;99.90
24802;DHT22;12898;50.520;12.152;2023-08-01T10:16:46;19.00;99.90
24802;DHT22;12898;50.520;12.152;2023-08-01T10:19:13;19.20;99.90
24802;DHT22;12898;50.520;12.152;2023-08-01T10:21:39;19.20;99.90
24802;DHT22;12898;50.520;12.152;2023-08-01T10:24:07;19.10;99.90
24802;DHT22;12898;50.520;12.152;2023-08-01T10:26:33;19.10;99.90
24802;DHT22;12898;50.520;12.152;2023-08-01T10:29:00;19.00;99.90
24802;DHT22;12898;50.520;12.152;2023-08-01T10:31:28;19.00;99.90
24802;DHT22;12898;50.520;12.152;2023-08-01T10:34:04;18.90;99.90
24802;DHT22;12898;50.520;12.152;2023-08-01T10:36:31;18.90;99.90
24802;DHT22;12898;50.520;12.152;2023-08-01T10:38:59;18.90;99.90
24802;DHT22;12898;50.520;12.152;2023-08-01T10:41:36;18.90;99.90
24802;DHT22;12898;50.520;12.152;2023-08-01T10:44:05;19.00;99.90
24802;DHT22;12898;50.520;12.152;2023-08-01T10:49:20;19.10;99.90
24802;DHT22;12898;50.520;12.152;2023-08-01T10:51:57;19.10;99.90
24802;DHT22;12898;50.520;12.152;2023-08-01T10:54:24;19.00;99.90
24802;DHT22;12898;50.520;12.152;2023-08-01T10:56:56;18.90;99.90
24802;DHT22;12898;50.520;12.152;2023-08-01T10:59:25;18.80;99.90
24802;DHT22;12898;50.520;12.152;2023-08-01T11:01:53;18.50;99.90
24802;DHT22;12898;50.520;12.152;2023-08-01T11:04:23;18.50;99.90
24802;DHT22;12898;50.520;12.152;2023-08-01T11:06:50;18.40;99.90
24802;DHT22;12898;50.520;12.152;2023-08-01T11:09:23;18.40;99.90
24802;DHT22;12898;50.520;12.152;2023-08-01T11:11:54;18.30;99.90
24802;DHT22;12898;50.520;12.152;2023-08-01T11:14:22;18.20;99.90
24802;DHT22;12898;50.520;12.152;2023-08-01T11:16:49;18.20;99.90
24802;DHT22;12898;50.520;12.152;2023-08-01T11:19:25;18.10;99.90
24802;DHT22;12898;50.520;12.152;2023-08-01T11:21:55;17.90;99.90
24802;DHT22;12898;50.520;12.152;2023-08-01T11:24:23;17.80;99.90
24802;DHT22;12898;50.520;12.152;2023-08-01T11:26:51;17.60;99.90
24802;DHT22;12898;50.520;12.152;2023-08-01T11:29:19;17.60;99.90
24802;DHT22;12898;50.520;12.152;2023-08-01T11:31:58;17.60;99.90
24802;DHT22;12898;50.520;12.152;2023-08-01T11:34:25;17.80;99.90
24802;DHT22;12898;50.520;12.152;2023-08-01T11:36:52;17.80;99.90
24802;DHT22;12898;50.520;12.152;2023-08-01T11:39:18;17.90;99.90
24802;DHT22;12898;50.520;12.152;2023-08-01T11:41:44;18.10;99.90
24802;DHT22;12898;50.520;12.152;2023-08-01T11:44:11;18.20;99.90
24802;DHT22;12898;50.520;12.152;2023-08-01T11:46:37;18.30;99.90
24802;DHT22;12898;50.520;12.152;2023-08-01T11:49:07;18.50;99.90
24802;DHT22;12898;50.520;12.152;2023-08-01T11:51:44;18.80;99.90
24802;DHT22;12898;50.520;12.152;2023-08-01T11:54:10;19.00;99.90
24802;DHT22;12898;50.520;12.152;2023-08-01T11:56:38;19.30;99.90
24802;DHT22;12898;50.520;12.152;2023-08-01T11:59:12;19.60;99.90
24802;DHT22;12898;50.520;12.152;2023-08-01T12:01:43;19.80;99.90
24802;DHT22;12898;50.520;12.152;2023-08-01T12:04:10;19.70;99.90
24802;DHT22;12898;50.520;12.152;2023-08-01T12:06:36;19.80;99.90
24802;DHT22;12898;50.520;12.152;2023-08-01T12:09:09;20.10;99.90
24802;DHT22;12898;50.520;12.152;2023-08-01T12:11:37;20.40;99.90
24802;DHT22;12898;50.520;12.152;2023-08-01T12:14:09;20.50;99.90
24802;DHT22;12898;50.520;12.152;2023-08-01T12:16:43;20.90;99.90
24802;DHT22;12898;50.520;12.152;2023-08-01T12:19:10;21.00;99.90
24802;DHT22;12898;50.520;12.152;2023-08-01T12:21:37;20.90;99.90
24802;DHT22;12898;50.520;12.152;2023-08-01T12:24:03;20.90;99.90
24802;DHT22;12898;50.520;12.152;2023-08-01T12:26:29;21.10;99.90
24802;DHT22;12898;50.520;12.152;2023-08-01T12:28:55;21.50;99.90
24802;DHT22;12898;50.520;12.152;2023-08-01T12:31:22;21.70;99.90
24802;DHT22;12898;50.520;12.152;2023-08-01T12:33:48;21.70;99.90
24802;DHT22;12898;50.520;12.152;2023-08-01T12:36:15;21.50;99.90
24802;DHT22;12898;50.520;12.152;2023-08-01T12:38:40;21.40;99.90
24802;DHT22;12898;50.520;12.152;2023-08-01T12:41:07;21.30;99.90
24802;DHT22;12898;50.520;12.152;2023-08-01T12:43:33;21.30;99.90
24802;DHT22;12898;50.520;12.152;2023-08-01T12:45:59;21.20;99.90
24802;DHT22;12898;50.520;12.152;2023-08-01T12:48:25;21.10;99.90
24802;DHT22;12898;50.520;12.152;2023-08-01T12:50:51;20.90;99.90
24802;DHT22;12898;50.520;12.152;2023-08-01T12:53:18;20.90;99.90
24802;DHT22;12898;50.520;12.152;2023-08-01T12:55:45;21.00;99.90
24802;DHT22;12898;50.520;12.152;2023-08-01T12:58:13;21.10;99.90
24802;DHT22;12898;50.520;12.152;2023-08-01T13:00:39;21.10;99.90
24802;DHT22;12898;50.520;12.152;2023-08-01T13:03:05;21.30;99.90
24802;DHT22;12898;50.520;12.152;2023-08-01T13:05:39;21.40;99.90
24802;DHT22;12898;50.520;12.152;2023-08-01T13:08:06;21.70;99.90
24802;DHT22;12898;50.520;12.152;2023-08-01T13:10:33;22.20;99.90
24802;DHT22;12898;50.520;12.152;2023-08-01T13:13:00;22.30;99.90
24802;DHT22;12898;50.520;12.152;2023-08-01T13:15:26;22.40;99.90
24802;DHT22;12898;50.520;12.152;2023-08-01T13:17:52;22.50;99.90
24802;DHT22;12898;50.520;12.152;2023-08-01T13:20:18;22.80;99.90
24802;DHT22;12898;50.520;12.152;2023-08-01T13:22:49;23.00;99.90
24802;DHT22;12898;50.520;12.152;2023-08-01T13:25:15;23.00;99.90
24802;DHT22;12898;50.520;12.152;2023-08-01T13:27:41;23.00;99.90
24802;DHT22;12898;50.520;12.152;2023-08-01T13:30:08;23.20;99.90
24802;DHT22;12898;50.520;12.152;2023-08-01T13:32:34;23.20;99.90
24802;DHT22;12898;50.520;12.152;2023-08-01T13:35:00;23.00;99.90
24802;DHT22;12898;50.520;12.152;2023-08-01T13:37:26;22.90;99.10
24802;DHT22;12898;50.520;12.152;2023-08-01T13:39:54;23.20;99.90
24802;DHT22;12898;50.520;12.152;2023-08-01T13:42:20;23.70;97.50
24802;DHT22;12898;50.520;12.152;2023-08-01T13:44:45;23.90;98.20
24802;DHT22;12898;50.520;12.152;2023-08-01T13:47:11;23.90;97.90
24802;DHT22;12898;50.520;12.152;2023-08-01T13:49:37;24.30;97.80
24802;DHT22;12898;50.520;12.152;2023-08-01T13:52:03;24.40;94.90
24802;DHT22;12898;50.520;12.152;2023-08-01T13:54:30;24.40;96.20
24802;DHT22;12898;50.520;12.152;2023-08-01T13:56:55;24.10;97.00
24802;DHT22;12898;50.520;12.152;2023-08-01T13:59:22;24.10;96.60
24802;DHT22;12898;50.520;12.152;2023-08-01T14:01:48;24.30;96.10
24802;DHT22;12898;50.520;12.152;2023-08-01T14:04:14;24.70;95.50
24802;DHT22;12898;50.520;12.152;2023-08-01T14:06:40;24.90;91.40
24802;DHT22;12898;50.520;12.152;2023-08-01T14:09:09;24.60;90.10
24802;DHT22;12898;50.520;12.152;2023-08-01T14:11:35;24.40;92.90
24802;DHT22;12898;50.520;12.152;2023-08-01T14:14:01;24.50;83.60
24802;DHT22;12898;50.520;12.152;2023-08-01T14:16:28;24.50;82.00
24802;DHT22;12898;50.520;12.152;2023-08-01T14:18:55;23.80;83.80
24802;DHT22;12898;50.520;12.152;2023-08-01T14:21:20;23.10;91.80
24802;DHT22;12898;50.520;12.152;2023-08-01T14:23:46;22.60;94.00
24802;DHT22;12898;50.520;12.152;2023-08-01T14:26:13;22.20;96.10
24802;DHT22;12898;50.520;12.152;2023-08-01T14:28:38;21.90;98.60
24802;DHT22;12898;50.520;12.152;2023-08-01T14:31:04;21.70;99.70
24802;DHT22;12898;50.520;12.152;2023-08-01T14:33:30;21.60;98.80
24802;DHT22;12898;50.520;12.152;2023-08-01T14:35:56;21.60;99.90
24802;DHT22;12898;50.520;12.152;2023-08-01T14:38:22;21.60;99.90
24802;DHT22;12898;50.520;12.152;2023-08-01T14:40:48;21.60;99.90
24802;DHT22;12898;50.520;12.152;2023-08-01T14:43:14;21.60;99.90
24802;DHT22;12898;50.520;12.152;2023-08-01T14:45:40;22.00;99.90
24802;DHT22;12898;50.520;12.152;2023-08-01T14:48:07;22.60;98.50
24802;DHT22;12898;50.520;12.152;2023-08-01T14:50:33;22.80;95.30
24802;DHT22;12898;50.520;12.152;2023-08-01T14:53:02;22.90;96.10
24802;DHT22;12898;50.520;12.152;2023-08-01T14:55:29;23.00;92.40
24802;DHT22;12898;50.520;12.152;2023-08-01T14:57:55;22.40;93.40
24802;DHT22;12898;50.520;12.152;2023-08-01T15:00:21;22.30;95.70
24802;DHT22;12898;50.520;12.152;2023-08-01T15:02:46;22.50;93.20
24802;DHT22;12898;50.520;12.152;2023-08-01T15:05:14;22.90;94.40
24802;DHT22;12898;50.520;12.152;2023-08-01T15:07:40;23.30;93.10
24802;DHT22;12898;50.520;12.152;2023-08-01T15:10:06;23.40;89.40
24802;DHT22;12898;50.520;12.152;2023-08-01T15:12:32;23.40;88.90
24802;DHT22;12898;50.520;12.152;2023-08-01T15:14:57;23.20;90.70